| # | Name | Team | Pos | GP | G | A | PTS | PIM | +/- | GWG | PPG | SHG | SOG | SG% | TM | M/G ▴ | TSh | AT/S | |
|---|---|---|---|---|---|---|---|---|---|---|---|---|---|---|---|---|---|---|---|
| 1 ... 5 6 7 8 9 10 11 12 13 14 | |||||||||||||||||||
| 241 | SCANDELLA Giulio | ITA | F | 7 | 1 | 2 | 3 | 8 | -4 | 0 | 1 | 0 | 9 | 11.11 | 108:14 | 15:27 | 133 | 0:48 | |
| 242 | ZHAILAUOV Talgat | KAZ | F | 7 | 1 | 1 | 2 | 4 | -4 | 0 | 0 | 0 | 8 | 12.50 | 108:28 | 15:29 | 166 | 0:39 | |
| 243 | SEGER Mathias | SUI | D | 7 | 0 | 2 | 2 | 2 | -1 | 0 | 0 | 0 | 4 | 0.00 | 108:48 | 15:32 | 171 | 0:38 | |
| 244 | HERTL Tomáš | CZE | F | 9 | 3 | 3 | 6 | 4 | 0 | 0 | 2 | 0 | 18 | 16.67 | 140:00 | 15:33 | 200 | 0:42 | |
| SULLIVAN Daniel | ITA | D | 7 | 0 | 0 | 0 | 6 | -4 | 0 | 0 | 0 | 3 | 0.00 | 108:55 | 15:33 | 138 | 0:47 | ||
| 246 | PIETTA Daniel | GER | F | 7 | 0 | 0 | 0 | 0 | -2 | 0 | 0 | 0 | 7 | 0.00 | 109:20 | 15:37 | 141 | 0:46 | |
| 247 | ANKERT Torsten | GER | D | 6 | 0 | 2 | 2 | 2 | -3 | 0 | 0 | 0 | 6 | 0.00 | 93:57 | 15:39 | 139 | 0:40 | |
| 248 | SAVCHENKO Roman | KAZ | D | 7 | 0 | 1 | 1 | 2 | -4 | 0 | 0 | 0 | 13 | 0.00 | 109:41 | 15:40 | 166 | 0:39 | |
| LAJUNEN Ville | FIN | D | 10 | 0 | 2 | 2 | 0 | -2 | 0 | 0 | 0 | 13 | 0.00 | 156:46 | 15:40 | 222 | 0:42 | ||
| SCHLUMPF Dominik | SUI | D | 7 | 1 | 0 | 1 | 4 | -1 | 0 | 0 | 0 | 5 | 20.00 | 109:45 | 15:40 | 168 | 0:39 | ||
| 251 | SCHENN Brayden | CAN | F | 8 | 3 | 1 | 4 | 0 | 2 | 0 | 1 | 0 | 16 | 18.75 | 125:31 | 15:41 | 158 | 0:47 | |
| 252 | NYQUIST Gustav | SWE | F | 10 | 4 | 2 | 6 | 2 | 2 | 0 | 2 | 0 | 19 | 21.05 | 157:00 | 15:42 | 214 | 0:44 | |
| SHIPACHYOV Vadim | RUS | F | 7 | 3 | 4 | 7 | 4 | 4 | 2 | 1 | 0 | 9 | 33.33 | 109:56 | 15:42 | 161 | 0:40 | ||
| 254 | ROMY Kevin | SUI | F | 6 | 1 | 2 | 3 | 4 | -2 | 1 | 0 | 0 | 11 | 9.09 | 94:29 | 15:44 | 139 | 0:40 | |
| READ Matt | CAN | F | 8 | 2 | 3 | 5 | 2 | 1 | 0 | 0 | 1 | 15 | 13.33 | 125:56 | 15:44 | 163 | 0:46 | ||
| 256 | FORSBERG Kristian | NOR | F | 7 | 0 | 0 | 0 | 2 | -5 | 0 | 0 | 0 | 5 | 0.00 | 110:37 | 15:48 | 169 | 0:39 | |
| DESROSIERS Julien | FRA | F | 8 | 3 | 3 | 6 | 0 | -2 | 0 | 1 | 0 | 11 | 27.27 | 126:31 | 15:48 | 188 | 0:40 | ||
| JOHNSON Trevor | ITA | D | 7 | 0 | 2 | 2 | 8 | -6 | 0 | 0 | 0 | 5 | 0.00 | 110:36 | 15:48 | 140 | 0:47 | ||
| 259 | PLATT Geoff | BLR | F | 8 | 3 | 2 | 5 | 0 | 1 | 0 | 0 | 0 | 22 | 13.64 | 126:39 | 15:49 | 193 | 0:39 | |
| 260 | ROMANOV Konstantin | KAZ | F | 7 | 2 | 0 | 2 | 2 | -9 | 0 | 1 | 0 | 9 | 22.22 | 110:59 | 15:51 | 159 | 0:41 | |
| 261 | di CASMIRRO Nathan | ITA | F | 7 | 0 | 1 | 1 | 2 | -4 | 0 | 0 | 0 | 2 | 0.00 | 111:21 | 15:54 | 145 | 0:46 | |
| 262 | STEPANOV Andrei | BLR | F | 8 | 3 | 2 | 5 | 2 | 0 | 0 | 3 | 0 | 16 | 18.75 | 127:22 | 15:55 | 163 | 0:46 | |
| 263 | INDRAŠIS Miks | LAT | F | 7 | 2 | 2 | 4 | 2 | 0 | 0 | 0 | 0 | 8 | 25.00 | 111:34 | 15:56 | 157 | 0:42 | |
| 264 | RØYMARK Martin | NOR | F | 7 | 0 | 0 | 0 | 0 | -6 | 0 | 0 | 0 | 10 | 0.00 | 111:42 | 15:57 | 172 | 0:38 | |
| 265 | STAS Andrei | BLR | F | 8 | 1 | 3 | 4 | 2 | 3 | 0 | 0 | 0 | 8 | 12.50 | 128:43 | 16:05 | 218 | 0:35 | |
| 266 | BÁRTA Alexander | GER | F | 7 | 1 | 0 | 1 | 2 | -5 | 0 | 0 | 0 | 16 | 6.25 | 113:06 | 16:09 | 148 | 0:45 | |
| BROUWER Troy | CAN | F | 8 | 0 | 1 | 1 | 4 | 2 | 0 | 0 | 0 | 10 | 0.00 | 129:15 | 16:09 | 162 | 0:47 | ||
| 268 | SCHÜTZ Felix | GER | F | 5 | 0 | 1 | 1 | 2 | -3 | 0 | 0 | 0 | 6 | 0.00 | 81:10 | 16:14 | 104 | 0:46 | |
| 269 | PÁNIK Richard | SVK | F | 7 | 0 | 0 | 0 | 2 | -5 | 0 | 0 | 0 | 10 | 0.00 | 113:49 | 16:15 | 146 | 0:46 | |
| 270 | JÁGR Jaromír | CZE | F | 10 | 4 | 4 | 8 | 14 | -2 | 0 | 1 | 0 | 35 | 11.43 | 162:57 | 16:17 | 224 | 0:43 | |
| GP | Number of games played | +/- | Plus/minus net | SG% | Percentage of goals from total shots |
| G | Goals | GWG | Game winning goals | TM | Total minutes played |
| A | Assists | PPG | Power play goals | M/G | Minutes per game |
| PTS | Points | SHG | Shorthanded goals | TSh | Total shifts played |
| PIM | Penalties in minutes | SOG | Shots on goal | AT/S | Average time per shift |